Latest Weather Observations for Little Bay

IDN60901

Issued at 5:11 pm EST Tuesday 26 September 2017 (issued every 10 minutes, with the page automatically refreshed every 10 minutes)

About weather observations | Map of Sydney area stations | Latest observations for Sydney area | Other Formats
Station Details ID: 066051 Name: LITTLE BAY (THE COAST GOLF CLUB) Lat: -33.98 Lon: 151.25 Height: 22.0 m
Data from the previous 72 hours. | See also: Recent months for locations in New South Wales
Date/Time
EST
Temp
°C
App
Temp
°C
Dew
Point
°C
Rel
Hum
%
Delta-T
°C
Wind Press
QNH
hPa
Press
MSL
hPa
Rain since
9am
mm
Dir  Spd
km/h
Gust
km/h
Spd
kts
Gust
kts
26/05:00pm - - - - - SE 17 24 9 13 - - -
26/04:30pm - - - - - SE 19 22 10 12 - - -
26/04:00pm - - - - - ESE 20 26 11 14 - - -
26/03:30pm - - - - - SE 20 24 11 13 - - -
26/03:00pm - - - - - SE 22 28 12 15 - - -
26/02:30pm - - - - - SE 20 26 11 14 - - -
26/02:00pm - - - - - SE 20 30 11 16 - - -
26/01:30pm - - - - - ESE 20 24 11 13 - - -
26/01:00pm - - - - - SE 19 24 10 13 - - -
26/12:30pm - - - - - SE 17 22 9 12 - - -
26/12:00pm - - - - - SE 19 22 10 12 - - -
26/11:30am - - - - - SE 19 22 10 12 - - -
26/11:00am - - - - - SE 17 20 9 11 - - -
26/10:30am - - - - - SSE 17 22 9 12 - - -
26/10:00am - - - - - S 17 22 9 12 - - -
26/09:30am - - - - - S 19 24 10 13 - - -
26/09:00am - - - - - S 20 28 11 15 - - -
26/08:30am - - - - - WSW 17 33 9 18 - - -
26/08:00am - - - - - W 15 22 8 12 - - -
26/07:30am - - - - - WSW 9 15 5 8 - - -
26/07:00am - - - - - WSW 11 19 6 10 - - -
26/06:30am - - - - - WSW 7 11 4 6 - - -
26/06:00am - - - - - SSW 2 4 1 2 - - -
26/05:30am - - - - - W 6 9 3 5 - - -
26/05:00am - - - - - W 7 9 4 5 - - -
26/04:30am - - - - - W 9 11 5 6 - - -
26/04:00am - - - - - WSW 7 9 4 5 - - -
26/03:30am - - - - - WSW 7 7 4 4 - - -
26/03:00am - - - - - W 6 9 3 5 - - -
26/02:30am - - - - - W 4 7 2 4 - - -
26/02:00am - - - - - W 4 6 2 3 - - -
26/01:30am - - - - - W 6 6 3 3 - - -
26/01:00am - - - - - WSW 6 7 3 4 - - -
26/12:30am - - - - - WSW 7 9 4 5 - - -
26/12:00am - - - - - SW 7 9 4 5 - - -
 
Date/Time
EST
Temp
°C
App
Temp
°C
Dew
Point
°C
Rel
Hum
%
Delta-T
°C
Wind Press
QNH
hPa
Press
MSL
hPa
Rain since
9am
mm
Dir  Spd
km/h
Gust
km/h
Spd
kts
Gust
kts
25/11:30pm - - - - - SSW 11 15 6 8 - - -
25/11:00pm - - - - - SSW 11 19 6 10 - - -
25/10:30pm - - - - - WNW 9 19 5 10 - - -
25/10:00pm - - - - - WNW 11 19 6 10 - - -
25/09:30pm - - - - - W 15 20 8 11 - - -
25/09:00pm - - - - - W 13 20 7 11 - - -
25/08:30pm - - - - - W 15 20 8 11 - - -
25/08:00pm - - - - - W 13 22 7 12 - - -
25/07:30pm - - - - - W 15 24 8 13 - - -
25/07:00pm - - - - - W 15 24 8 13 - - -
25/06:30pm - - - - - WSW 15 20 8 11 - - -
25/06:00pm - - - - - WSW 13 20 7 11 - - -
25/05:30pm - - - - - WNW 20 37 11 20 - - -
25/05:00pm - - - - - WNW 20 37 11 20 - - -
25/04:30pm - - - - - WNW 20 35 11 19 - - -
25/04:00pm - - - - - WNW 22 39 12 21 - - -
25/03:30pm - - - - - WNW 24 44 13 24 - - -
25/03:00pm - - - - - WNW 22 37 12 20 - - -
25/02:30pm - - - - - WNW 19 33 10 18 - - -
25/02:00pm - - - - - W 15 24 8 13 - - -
25/01:30pm - - - - - WSW 15 24 8 13 - - -
25/01:00pm - - - - - WSW 15 22 8 12 - - -
25/12:30pm - - - - - WSW 15 24 8 13 - - -
25/12:00pm - - - - - SW 17 24 9 13 - - -
25/11:30am - - - - - SW 19 28 10 15 - - -
25/11:00am - - - - - W 17 30 9 16 - - -
25/10:30am - - - - - W 17 32 9 17 - - -
25/10:00am - - - - - WSW 17 26 9 14 - - -
25/09:30am - - - - - W 17 26 9 14 - - -
25/09:00am - - - - - W 11 17 6 9 - - -
25/08:30am - - - - - W 9 15 5 8 - - -
25/08:00am - - - - - W 7 11 4 6 - - -
25/07:30am - - - - - W 6 9 3 5 - - -
25/07:00am - - - - - W 7 9 4 5 - - -
25/06:30am - - - - - SW 7 11 4 6 - - -
25/06:00am - - - - - WSW 7 11 4 6 - - -
25/05:30am - - - - - WSW 9 13 5 7 - - -
25/05:00am - - - - - W 9 11 5 6 - - -
25/04:30am - - - - - SW 11 13 6 7 - - -
25/04:00am - - - - - W 6 9 3 5 - - -
25/03:30am - - - - - WSW 6 9 3 5 - - -
25/03:00am - - - - - NW 6 9 3 5 - - -
25/02:30am - - - - - NW 6 9 3 5 - - -
25/02:00am - - - - - NNW 9 13 5 7 - - -
25/01:30am - - - - - NW 4 6 2 3 - - -
25/01:00am - - - - - NW 6 11 3 6 - - -
25/12:30am - - - - - NW 2 6 1 3 - - -
25/12:00am - - - - - NNW 6 11 3 6 - - -
 
Date/Time
EST
Temp
°C
App
Temp
°C
Dew
Point
°C
Rel
Hum
%
Delta-T
°C
Wind Press
QNH
hPa
Press
MSL
hPa
Rain since
9am
mm
Dir  Spd
km/h
Gust
km/h
Spd
kts
Gust
kts
24/11:30pm - - - - - N 7 9 4 5 - - -
24/11:00pm - - - - - N 6 7 3 4 - - -
24/10:30pm - - - - - N 6 6 3 3 - - -
24/10:00pm - - - - - N 2 4 1 2 - - -
24/09:30pm - - - - - NNW 2 4 1 2 - - -
24/09:00pm - - - - - NNW 4 7 2 4 - - -
24/08:30pm - - - - - WNW 7 13 4 7 - - -
24/08:00pm - - - - - WNW 9 17 5 9 - - -
24/07:30pm - - - - - WNW 9 17 5 9 - - -
24/07:00pm - - - - - W 11 17 6 9 - - -
24/06:30pm - - - - - W 11 22 6 12 - - -
24/06:00pm - - - - - W 13 24 7 13 - - -
24/05:30pm - - - - - W 19 33 10 18 - - -
24/05:00pm - - - - - W 17 28 9 15 - - -
24/04:30pm - - - - - W 20 28 11 15 - - -
24/04:00pm - - - - - W 20 44 11 24 - - -
24/03:30pm - - - - - W 24 37 13 20 - - -
24/03:00pm - - - - - W 28 43 15 23 - - -
24/02:30pm - - - - - W 19 33 10 18 - - -
24/02:00pm - - - - - WSW 15 20 8 11 - - -
24/01:30pm - - - - - WNW 15 30 8 16 - - -
24/01:00pm - - - - - W 17 30 9 16 - - -
24/12:30pm - - - - - W 17 30 9 16 - - -
24/12:00pm - - - - - W 28 50 15 27 - - -
24/11:59am - - - - - W 28 50 15 27 - - -
24/11:30am - - - - - W 19 32 10 17 - - -
24/11:00am - - - - - WNW 20 35 11 19 - - -
24/10:30am - - - - - WSW 17 26 9 14 - - -
24/10:00am - - - - - WSW 13 28 7 15 - - -
24/09:30am - - - - - WSW 17 26 9 14 - - -
24/09:00am - - - - - WSW 15 24 8 13 - - -
24/08:30am - - - - - WSW 13 17 7 9 - - -
24/08:00am - - - - - SW 11 15 6 8 - - -
24/07:30am - - - - - SSW 13 22 7 12 - - -
24/07:00am - - - - - SSW 11 19 6 10 - - -
24/06:30am - - - - - SSW 11 17 6 9 - - -
24/06:00am - - - - - NW 7 17 4 9 - - -
24/05:30am - - - - - NNW 7 13 4 7 - - -
24/05:00am - - - - - NNE 2 7 1 4 - - -
24/04:30am - - - - - W 6 11 3 6 - - -
24/04:00am - - - - - N 7 9 4 5 - - -
24/03:30am - - - - - NNE 6 9 3 5 - - -
24/03:00am - - - - - N 13 20 7 11 - - -
24/02:30am - - - - - N 6 11 3 6 - - -
24/02:00am - - - - - NNE 13 19 7 10 - - -
24/01:30am - - - - - N 11 17 6 9 - - -
24/01:00am - - - - - N 15 20 8 11 - - -
24/12:30am - - - - - N 11 13 6 7 - - -
24/12:00am - - - - - N 11 17 6 9 - - -
 
Date/Time
EST
Temp
°C
App
Temp
°C
Dew
Point
°C
Rel
Hum
%
Delta-T
°C
Wind Press
QNH
hPa
Press
MSL
hPa
Rain since
9am
mm
Dir  Spd
km/h
Gust
km/h
Spd
kts
Gust
kts
23/11:30pm - - - - - N 9 15 5 8 - - -
23/11:00pm - - - - - NNE 2 7 1 4 - - -
23/10:30pm - - - - - N 6 11 3 6 - - -
23/10:00pm - - - - - N 15 20 8 11 - - -
23/09:30pm - - - - - N 19 26 10 14 - - -
23/09:00pm - - - - - N 17 24 9 13 - - -
23/08:30pm - - - - - N 17 24 9 13 - - -
23/08:00pm - - - - - N 17 24 9 13 - - -
23/07:30pm - - - - - N 13 17 7 9 - - -
23/07:00pm - - - - - N 13 19 7 10 - - -
23/06:30pm - - - - - N 17 26 9 14 - - -
23/06:00pm - - - - - N 26 35 14 19 - - -
23/05:30pm - - - - - N 32 50 17 27 - - -
23/05:29pm - - - - - N 32 50 17 27 - - -

Latest Capital City Observations: Canberra | Sydney | Melbourne | Brisbane | Adelaide | Perth | Hobart | Darwin

Other Formats:

Comma delimited format used in spreadsheet applications
http://www.bom.gov.au/fwo/IDN60901/IDN60901.94780.axf

JavaScript Object Notation format (JSON) in row-major order
http://www.bom.gov.au/fwo/IDN60901/IDN60901.94780.json